Attawapiskat Airport
CYAT : now visible

Airfield :











YOU CAN JOIN US ON...

 
LOGIN :

Register | Disclaimer

   EN    FR    IT 

 









Legend :    VFR   Marginal VFR   IFR   Intensive IFR   Very Intensive IFR
Visi :
Ceiling :
>= 8 km
>= 3000ft
5 to 8 km
1000 to 3000 ft
1500m to 5 km
500 to 1000 ft
800 to 1500m
200 to 500 ft
< 800m
< 200 ft
Symbols :   Thunderstorms  Fog  Heavy snow  Heavy precipitations  Wind > 20 kt






- Airport Elevation : 31 ft
- IATA code : YAT


CYAT - Attawapiskat

CURRENT METAR :
  • 062100Z AUTO 30008KT 9SM OVC017 M04/M07 A3006 RMK SLP182

EXPIRED METARs :
  • 062000Z AUTO 30010KT 280V340 9SM OVC021 M04/M08 A3006 RMK SLP180
  • 061956Z AUTO 30009KT 280V340 9SM OVC023 M04/M08 A3006 RMK SLP181
  • 061938Z AUTO 30009KT 9SM -SN OVC023 M04/M08 A3006 RMK SLP180
  • 061930Z AUTO 32008G15KT 9SM OVC023 M04/M08 A3006 RMK SLP180
  • 061919Z AUTO 32008G15KT 9SM -SN OVC023 M04/M08 A3005 RMK SLP179
  • 061903Z AUTO 32009KT 260V330 9SM OVC023 M04/M08 A3005 RMK SLP178
  • 061850Z AUTO 30008KT 270V340 9SM -SN OVC023 M04/M08 A3005 RMK SLP177

Expired Forecast.



MET'MAP, your aeronautical weather chart ! - Copyright ORBIFLY December 2007 - Disclaimer

ORBIFLY MET'MAP TEAM :

Programming & Development : Alexandra Zaïnal
Concept & original design : Baudouin d'Aumeries
Assistance for programming : Marc-Olivier Méhu
Technical & hardware support : Manuel Goepfert

Contact : metmap@orbifly.com




SOURCES & CREDITS :

   NOAA       Earth
Advisory